Time;durP1;ratioP1;P1;durP2;ratioP2;P2;SDS_P1;SDS_P2;PMS_P1;PMS_P2;Temp;Humidity;BMP_temperature;BMP_pressure;BME280_temperature;BME280_humidity;BME280_pressure;Samples;Min_cycle;Max_cycle;Signal;HPM_P1;HPM_P2
2022/04/04 00:01:29;;;;;;;6.35;4.60;;;;;;;-0.37;73.44;98775.81;4196254;28;20871;-72
2022/04/04 00:03:29;;;;;;;6.20;4.40;;;;;;;-0.37;73.75;98770.38;4197978;28;20378;-72
2022/04/04 00:05:30;;;;;;;6.72;4.50;;;;;;;-0.43;74.53;98759.91;4197820;28;20040;-72
2022/04/04 00:07:31;;;;;;;6.75;4.70;;;;;;;-0.47;74.08;98756.97;4190317;28;20110;-72
2022/04/04 00:09:31;;;;;;;9.27;4.78;;;;;;;-0.46;74.32;98764.03;4199314;28;20080;-72
2022/04/04 00:11:31;;;;;;;6.68;4.35;;;;;;;-0.45;74.51;98746.63;4193497;28;20440;-72
2022/04/04 00:13:32;;;;;;;6.45;4.57;;;;;;;-0.46;74.48;98758.59;4204018;28;20043;-72
2022/04/04 00:15:32;;;;;;;8.75;5.53;;;;;;;-0.47;74.26;98753.47;4199466;28;20484;-72
2022/04/04 00:17:32;;;;;;;6.95;4.88;;;;;;;-0.42;74.65;98742.47;4195636;28;20119;-72
2022/04/04 00:19:33;;;;;;;6.47;5.05;;;;;;;-0.37;74.75;98743.19;4195345;28;20037;-72
2022/04/04 00:21:33;;;;;;;6.28;5.03;;;;;;;-0.39;74.57;98742.69;4195677;28;20456;-72
2022/04/04 00:23:33;;;;;;;8.70;5.68;;;;;;;-0.41;74.66;98744.13;4198685;28;20471;-71
2022/04/04 00:25:34;;;;;;;8.50;5.85;;;;;;;-0.33;74.64;98752.38;4193985;28;20079;-71
2022/04/04 00:27:34;;;;;;;7.88;5.65;;;;;;;-0.31;74.03;98741.22;4196819;28;20044;-71
2022/04/04 00:29:35;;;;;;;8.00;5.38;;;;;;;-0.31;74.22;98738.50;4194857;28;20047;-72
2022/04/04 00:31:35;;;;;;;8.20;6.00;;;;;;;-0.32;74.42;98734.16;4196416;28;20686;-72
2022/04/04 00:33:36;;;;;;;10.73;5.53;;;;;;;-0.35;74.47;98737.47;4195597;28;20100;-72
2022/04/04 00:35:36;;;;;;;10.52;6.00;;;;;;;-0.38;74.81;98729.91;4188787;28;20041;-72
2022/04/04 00:37:37;;;;;;;7.72;6.07;;;;;;;-0.31;74.74;98731.13;4200294;28;20091;-72
2022/04/04 00:39:37;;;;;;;8.88;6.15;;;;;;;-0.35;74.63;98727.38;4195722;28;20041;-72
2022/04/04 00:41:38;;;;;;;8.60;6.15;;;;;;;-0.29;74.25;98736.25;4196950;28;20651;-72
2022/04/04 00:43:38;;;;;;;8.27;5.80;;;;;;;-0.32;74.30;98726.81;4198518;28;20063;-72
2022/04/04 00:45:44;;;;;;;10.88;6.00;;;;;;;-0.28;74.19;98727.00;4196570;28;20101;-72
2022/04/04 00:47:45;;;;;;;7.85;6.13;;;;;;;-0.32;74.34;98729.53;4194600;28;20040;-72
2022/04/04 00:49:45;;;;;;;8.82;5.85;;;;;;;-0.36;74.39;98733.94;4196375;28;20608;-72
2022/04/04 00:51:45;;;;;;;8.30;5.93;;;;;;;-0.37;74.41;98726.09;4194076;28;20045;-72
2022/04/04 00:53:46;;;;;;;7.72;5.38;;;;;;;-0.38;74.58;98728.00;4189934;28;20060;-72
2022/04/04 00:55:46;;;;;;;7.18;5.22;;;;;;;-0.43;74.68;98722.66;4198197;28;20051;-72
2022/04/04 00:57:47;;;;;;;8.23;5.80;;;;;;;-0.48;74.97;98717.31;4198218;28;20483;-72
2022/04/04 00:59:49;;;;;;;7.13;5.53;;;;;;;-0.48;74.80;98722.75;4195990;28;20133;-72
2022/04/04 01:01:49;;;;;;;7.80;5.97;;;;;;;-0.52;75.17;98712.78;4195112;28;20041;-72
2022/04/04 01:03:50;;;;;;;8.23;5.65;;;;;;;-0.48;75.35;98714.59;4196074;28;20270;-72
2022/04/04 01:05:50;;;;;;;7.90;5.72;;;;;;;-0.57;75.46;98711.78;4192654;28;20483;-72
2022/04/04 01:07:51;;;;;;;8.35;5.53;;;;;;;-0.59;75.85;98713.97;4196485;28;20047;-72
2022/04/04 01:09:51;;;;;;;10.25;5.90;;;;;;;-0.61;76.17;98712.66;4195917;28;20094;-72
2022/04/04 01:12:08;;;;;;;8.65;6.30;;;;;;;-0.63;77.24;98710.25;4199051;28;20048;-72
2022/04/04 01:14:08;;;;;;;8.18;5.65;;;;;;;-0.52;77.29;98707.34;4193215;28;20102;-72
2022/04/04 01:16:08;;;;;;;10.23;6.95;;;;;;;-0.51;76.99;98703.50;4193613;28;20024;-72
2022/04/04 01:18:10;;;;;;;6.28;5.35;;;;;;;-0.60;77.42;98701.47;4196509;28;20035;-72
2022/04/04 01:20:10;;;;;;;10.45;7.22;;;;;;;-0.61;77.94;98697.16;4197852;28;20028;-72
2022/04/04 01:22:12;;;;;;;7.35;5.93;;;;;;;-0.49;77.12;98693.16;4195519;28;20059;-72
2022/04/04 01:24:19;;;;;;;8.93;6.03;;;;;;;-0.49;77.24;98688.53;4195688;28;20032;-72
2022/04/04 01:26:20;;;;;;;8.73;5.90;;;;;;;-0.45;76.77;98692.25;4195135;28;20064;-72
2022/04/04 01:28:20;;;;;;;8.90;6.57;;;;;;;-0.47;76.73;98675.44;4193516;28;21236;-72
2022/04/04 01:30:22;;;;;;;11.05;6.53;;;;;;;-0.43;76.78;98681.88;4190143;28;20132;-72
2022/04/04 01:32:22;;;;;;;9.27;6.55;;;;;;;-0.37;76.68;98690.75;4195220;28;20048;-72
2022/04/04 01:34:23;;;;;;;10.52;6.88;;;;;;;-0.37;76.89;98685.31;4191409;28;20040;-72
2022/04/04 01:36:23;;;;;;;11.30;6.43;;;;;;;-0.37;76.56;98685.31;4196030;28;20523;-72
2022/04/04 01:38:25;;;;;;;8.27;5.75;;;;;;;-0.36;76.67;98682.28;4194134;28;20037;-72
2022/04/04 01:40:25;;;;;;;7.03;5.97;;;;;;;-0.37;76.66;98677.94;4195901;28;20170;-72
2022/04/04 01:42:25;;;;;;;9.95;6.13;;;;;;;-0.32;76.57;98679.78;4190168;28;20131;-72
2022/04/04 01:44:26;;;;;;;8.60;6.60;;;;;;;-0.31;76.64;98678.66;4197463;28;20492;-72
2022/04/04 01:46:29;;;;;;;7.47;6.30;;;;;;;-0.37;76.49;98677.16;4196246;28;20068;-72
2022/04/04 01:48:36;;;;;;;9.93;6.53;;;;;;;-0.43;76.87;98668.28;4197103;28;20056;-72
2022/04/04 01:50:36;;;;;;;9.15;6.20;;;;;;;-0.45;77.17;98672.41;4194026;28;20047;-71
2022/04/04 01:52:37;;;;;;;8.95;6.60;;;;;;;-0.51;77.02;98660.81;4194577;28;20041;-71
2022/04/04 01:54:37;;;;;;;8.90;6.43;;;;;;;-0.50;76.91;98667.88;4194394;28;20041;-71
2022/04/04 01:56:38;;;;;;;9.55;6.47;;;;;;;-0.52;77.08;98663.84;4193117;28;20181;-71
2022/04/04 01:58:39;;;;;;;7.97;6.07;;;;;;;-0.48;76.74;98662.97;4194635;28;20093;-71
2022/04/04 02:00:40;;;;;;;8.82;6.30;;;;;;;-0.48;76.91;98659.44;4191578;28;20045;-72
2022/04/04 02:02:40;;;;;;;10.63;6.53;;;;;;;-0.52;77.05;98652.97;4192113;28;20051;-72
2022/04/04 02:04:41;;;;;;;7.65;5.95;;;;;;;-0.51;76.77;98649.94;4202795;28;20083;-72
2022/04/04 02:06:41;;;;;;;9.55;6.72;;;;;;;-0.49;76.68;98647.75;4195183;28;20044;-72
2022/04/04 02:08:42;;;;;;;10.65;6.20;;;;;;;-0.44;76.25;98646.84;4190552;28;20317;-72
2022/04/04 02:10:44;;;;;;;9.25;6.50;;;;;;;-0.47;76.70;98642.81;4193701;28;20558;-72
2022/04/04 02:12:44;;;;;;;7.45;5.75;;;;;;;-0.48;76.52;98649.38;4195190;28;20067;-72
2022/04/04 02:14:45;;;;;;;9.02;6.43;;;;;;;-0.50;76.62;98648.84;4193956;28;20287;-72
2022/04/04 02:16:45;;;;;;;10.18;6.85;;;;;;;-0.55;76.82;98640.81;4193264;28;20051;-72
2022/04/04 02:18:46;;;;;;;10.40;7.35;;;;;;;-0.54;76.87;98647.03;4195550;28;20334;-72
2022/04/04 02:20:46;;;;;;;9.30;6.05;;;;;;;-0.54;76.69;98641.59;4193769;28;20049;-72
2022/04/04 02:22:48;;;;;;;8.68;6.55;;;;;;;-0.54;77.09;98638.88;4192716;28;20048;-72
2022/04/04 02:24:49;;;;;;;14.07;6.63;;;;;;;-0.61;77.56;98625.69;4193100;28;20044;-72
2022/04/04 02:26:49;;;;;;;8.32;6.22;;;;;;;-0.58;77.74;98635.94;4194381;28;20037;-72
2022/04/04 02:28:49;;;;;;;12.88;7.05;;;;;;;-0.58;77.49;98628.63;4194143;28;20066;-72
2022/04/04 02:30:50;;;;;;;12.82;5.97;;;;;;;-0.51;77.23;98627.41;4194802;28;20040;-72
2022/04/04 02:32:51;;;;;;;8.70;6.68;;;;;;;-0.54;77.45;98626.09;4193840;28;20051;-72
2022/04/04 02:34:52;;;;;;;7.32;5.93;;;;;;;-0.53;77.23;98626.91;4199310;28;20036;-72
2022/04/04 02:36:52;;;;;;;10.10;5.95;;;;;;;-0.50;77.15;98629.00;4195157;28;20044;-72
2022/04/04 02:38:53;;;;;;;10.93;6.20;;;;;;;-0.49;77.05;98630.66;4188086;28;20129;-72
2022/04/04 02:40:55;;;;;;;8.43;6.50;;;;;;;-0.49;76.83;98617.06;4194510;28;20127;-72
2022/04/04 02:42:55;;;;;;;8.60;6.65;;;;;;;-0.51;76.96;98624.69;4196981;28;20084;-72
2022/04/04 02:44:56;;;;;;;8.38;6.47;;;;;;;-0.50;77.14;98624.38;4193312;28;20512;-72
2022/04/04 02:46:56;;;;;;;11.38;7.47;;;;;;;-0.56;77.17;98617.44;4194241;28;20040;-72
2022/04/04 02:48:56;;;;;;;11.38;7.93;;;;;;;-0.55;76.67;98615.53;4194257;28;20044;-72
2022/04/04 02:50:57;;;;;;;12.00;7.35;;;;;;;-0.53;77.00;98607.88;4194407;28;20194;-72
2022/04/04 02:52:57;;;;;;;12.57;7.93;;;;;;;-0.49;77.16;98617.84;4193661;28;20052;-72
2022/04/04 02:54:58;;;;;;;10.95;7.68;;;;;;;-0.51;77.20;98609.19;4194479;28;20046;-72
2022/04/04 02:56:58;;;;;;;8.88;6.32;;;;;;;-0.54;76.97;98603.56;4196175;28;20040;-72
2022/04/04 02:59:02;;;;;;;13.27;7.88;;;;;;;-0.54;77.32;98609.00;4192051;28;20098;-72
2022/04/04 03:01:03;;;;;;;12.15;7.82;;;;;;;-0.50;77.49;98609.97;4194484;28;20052;-72
2022/04/04 03:03:04;;;;;;;10.10;7.07;;;;;;;-0.45;77.03;98597.09;4194674;28;20650;-72
2022/04/04 03:05:04;;;;;;;9.75;7.18;;;;;;;-0.40;76.86;98601.66;4190340;28;20430;-72
2022/04/04 03:07:05;;;;;;;12.82;7.53;;;;;;;-0.40;76.85;98599.72;4192830;28;20044;-72
2022/04/04 03:09:05;;;;;;;9.43;6.80;;;;;;;-0.37;76.93;98592.88;4195480;28;20051;-72
2022/04/04 03:11:05;;;;;;;9.38;6.70;;;;;;;-0.33;77.09;98596.63;4193645;28;20070;-72
2022/04/04 03:13:06;;;;;;;10.77;7.25;;;;;;;-0.35;76.98;98582.50;4187882;28;20395;-72
2022/04/04 03:15:07;;;;;;;9.15;6.95;;;;;;;-0.39;77.13;98578.78;4193571;28;20106;-72
2022/04/04 03:17:07;;;;;;;10.98;7.55;;;;;;;-0.36;77.02;98581.69;4193582;28;20178;-72
2022/04/04 03:19:08;;;;;;;11.75;7.57;;;;;;;-0.40;77.42;98594.28;4190181;28;20460;-72
2022/04/04 03:21:08;;;;;;;13.82;7.60;;;;;;;-0.43;77.16;98588.63;4193295;28;20523;-72
2022/04/04 03:23:08;;;;;;;9.82;6.57;;;;;;;-0.41;77.31;98570.94;4193561;28;20369;-72
2022/04/04 03:25:10;;;;;;;10.85;6.72;;;;;;;-0.32;76.99;98565.59;4194106;28;20069;-72
2022/04/04 03:27:13;;;;;;;10.43;7.10;;;;;;;-0.41;77.16;98572.84;4194637;28;20045;-72
2022/04/04 03:29:13;;;;;;;11.38;7.10;;;;;;;-0.46;77.40;98570.22;4195977;28;20432;-72
2022/04/04 03:31:14;;;;;;;12.30;7.35;;;;;;;-0.44;77.54;98574.25;4196942;28;20028;-72
2022/04/04 03:33:15;;;;;;;9.43;6.63;;;;;;;-0.48;77.64;98565.09;4191212;28;20048;-72
2022/04/04 03:35:17;;;;;;;11.75;7.80;;;;;;;-0.49;78.14;98573.56;4193111;28;20068;-72
2022/04/04 03:37:17;;;;;;;11.63;7.37;;;;;;;-0.49;78.24;98574.38;4192939;28;20391;-72
2022/04/04 03:39:18;;;;;;;11.23;7.03;;;;;;;-0.54;78.28;98563.59;4190746;28;20118;-72
2022/04/04 03:41:18;;;;;;;9.93;7.20;;;;;;;-0.60;78.44;98562.88;4189972;28;20275;-72
2022/04/04 03:43:18;;;;;;;11.40;7.65;;;;;;;-0.59;78.67;98560.97;4194834;28;20436;-72
2022/04/04 03:45:19;;;;;;;10.48;7.65;;;;;;;-0.60;78.89;98562.06;4196820;28;20044;-72
2022/04/04 03:47:21;;;;;;;10.07;7.53;;;;;;;-0.60;78.70;98552.00;4190171;28;20300;-72
2022/04/04 03:49:21;;;;;;;14.05;7.85;;;;;;;-0.59;78.74;98559.06;4195469;28;20132;-72
2022/04/04 03:51:22;;;;;;;12.15;7.60;;;;;;;-0.53;78.74;98557.03;4196135;28;20087;-72
2022/04/04 03:53:23;;;;;;;12.48;8.00;;;;;;;-0.54;78.66;98555.44;4199196;28;20040;-72
2022/04/04 03:55:28;;;;;;;11.13;7.63;;;;;;;-0.53;79.01;98554.31;4194237;28;20126;-72
2022/04/04 03:57:29;;;;;;;11.05;7.63;;;;;;;-0.57;79.14;98553.34;4196534;28;20239;-72
2022/04/04 03:59:29;;;;;;;12.05;8.20;;;;;;;-0.56;79.71;98552.22;4193323;28;20583;-72
2022/04/04 04:01:30;;;;;;;11.82;8.32;;;;;;;-0.60;79.97;98546.56;4197445;28;20443;-72
2022/04/04 04:03:31;;;;;;;11.82;7.72;;;;;;;-0.61;80.41;98555.03;4196378;28;20080;-72
2022/04/04 04:05:31;;;;;;;13.57;8.65;;;;;;;-0.61;80.52;98539.53;4202941;28;20492;-72
2022/04/04 04:07:32;;;;;;;13.63;9.48;;;;;;;-0.61;80.89;98538.72;4186714;28;20052;-72
2022/04/04 04:09:32;;;;;;;14.80;8.70;;;;;;;-0.55;80.77;98534.81;4197121;28;20101;-72
2022/04/04 04:11:33;;;;;;;11.88;7.90;;;;;;;-0.48;80.58;98535.22;4195934;28;20462;-72
2022/04/04 04:13:33;;;;;;;11.45;8.35;;;;;;;-0.44;79.79;98528.03;4195325;28;20483;-72
2022/04/04 04:15:34;;;;;;;12.77;8.20;;;;;;;-0.42;79.91;98533.16;4191848;28;20098;-72
2022/04/04 04:17:34;;;;;;;12.50;8.90;;;;;;;-0.44;79.84;98535.38;4197305;28;20400;-72
2022/04/04 04:21:54;;;;;;;14.10;8.73;;;;;;;-0.48;80.17;98520.81;4199211;28;20131;-72
2022/04/04 04:23:54;;;;;;;14.63;8.00;;;;;;;-0.45;80.38;98518.28;4196695;28;20076;-72
2022/04/04 04:25:55;;;;;;;14.23;8.93;;;;;;;-0.47;80.32;98525.13;4195808;28;20044;-72
2022/04/04 04:27:59;;;;;;;16.80;9.32;;;;;;;-0.49;80.15;98520.00;4195999;28;20570;-72
2022/04/04 04:30:00;;;;;;;13.63;9.90;;;;;;;-0.47;80.34;98530.56;4195289;28;20120;-72
2022/04/04 04:32:01;;;;;;;15.45;8.93;;;;;;;-0.47;80.88;98520.50;4196801;28;20129;-72
2022/04/04 04:34:03;;;;;;;14.23;8.35;;;;;;;-0.44;80.41;98519.09;4195817;28;20199;-72
2022/04/04 04:36:03;;;;;;;13.75;8.77;;;;;;;-0.42;79.97;98519.56;4191263;28;20097;-72
2022/04/04 04:38:04;;;;;;;15.30;8.88;;;;;;;-0.44;80.51;98519.88;4196376;28;20419;-71
2022/04/04 04:40:05;;;;;;;15.63;9.73;;;;;;;-0.44;79.74;98516.34;4198836;28;20040;-72
2022/04/04 04:42:06;;;;;;;15.55;8.95;;;;;;;-0.47;79.21;98509.63;4196468;28;20040;-72
2022/04/04 04:44:06;;;;;;;13.85;9.18;;;;;;;-0.44;79.02;98503.56;4195006;28;20028;-72
2022/04/04 04:46:06;;;;;;;12.55;8.00;;;;;;;-0.41;78.62;98499.47;4196941;28;20497;-72
2022/04/04 04:48:07;;;;;;;13.40;8.90;;;;;;;-0.33;78.15;98502.25;4140055;28;20451;-72
2022/04/04 04:50:08;;;;;;;14.18;9.20;;;;;;;-0.36;78.24;98508.28;4196883;28;20033;-72
2022/04/04 04:52:09;;;;;;;15.43;9.13;;;;;;;-0.39;78.42;98503.47;4196055;28;20044;-72
2022/04/04 04:54:09;;;;;;;15.00;9.68;;;;;;;-0.43;78.35;98497.03;4194709;28;20466;-72
2022/04/04 04:56:09;;;;;;;13.93;8.95;;;;;;;-0.45;78.36;98490.28;4196450;28;20048;-72
2022/04/04 04:58:10;;;;;;;17.27;9.52;;;;;;;-0.48;78.96;98480.03;4193184;28;20132;-72
2022/04/04 05:00:13;;;;;;;15.10;9.40;;;;;;;-0.44;78.99;98484.53;4189534;28;20020;-72
2022/04/04 05:02:13;;;;;;;17.00;10.23;;;;;;;-0.44;79.06;98487.25;4198637;28;20486;-72
2022/04/04 05:04:14;;;;;;;14.57;9.35;;;;;;;-0.41;79.53;98478.50;4198473;28;20025;-72
2022/04/04 05:06:14;;;;;;;13.07;9.02;;;;;;;-0.38;79.43;98483.31;4195689;28;20402;-72
2022/04/04 05:08:15;;;;;;;16.33;9.93;;;;;;;-0.38;78.89;98468.94;4193919;28;20085;-72
2022/04/04 05:10:16;;;;;;;14.70;9.75;;;;;;;-0.38;78.67;98472.44;4191333;28;20025;-72
2022/04/04 05:12:16;;;;;;;15.45;10.68;;;;;;;-0.33;78.47;98466.13;4194935;28;20089;-72
2022/04/04 05:14:17;;;;;;;15.07;10.77;;;;;;;-0.33;78.88;98457.97;4195314;28;20151;-72
2022/04/04 05:16:17;;;;;;;15.35;10.40;;;;;;;-0.36;79.05;98458.56;4195402;28;20028;-72
2022/04/04 05:18:18;;;;;;;18.33;10.23;;;;;;;-0.29;78.30;98451.59;4192627;28;20083;-72
2022/04/04 05:20:19;;;;;;;14.90;9.80;;;;;;;-0.17;78.18;98458.38;4196739;28;20460;-72
2022/04/04 05:22:19;;;;;;;15.75;10.27;;;;;;;-0.15;77.85;98456.97;4199265;28;20027;-71
2022/04/04 05:24:20;;;;;;;15.63;10.45;;;;;;;-0.13;77.48;98451.22;4190355;28;21458;-71
2022/04/04 05:26:20;;;;;;;14.82;10.48;;;;;;;-0.12;77.94;98452.81;4194980;28;20504;-72
2022/04/04 05:28:20;;;;;;;15.85;10.57;;;;;;;-0.13;77.57;98453.94;4190661;28;20056;-72
2022/04/04 05:30:21;;;;;;;17.52;10.73;;;;;;;-0.16;78.36;98451.84;4194258;28;21000;-72
2022/04/04 05:32:21;;;;;;;14.30;9.73;;;;;;;-0.13;77.58;98454.75;4195371;28;20048;-72
2022/04/04 05:34:25;;;;;;;17.27;10.82;;;;;;;-0.11;77.57;98457.16;4201897;28;20121;-72
2022/04/04 05:36:27;;;;;;;16.35;9.82;;;;;;;-0.09;77.30;98449.47;4196291;28;20380;-72
2022/04/04 05:38:28;;;;;;;15.40;10.27;;;;;;;-0.01;76.95;98454.19;4191608;28;20036;-72
2022/04/04 05:40:28;;;;;;;16.00;10.85;;;;;;;0.04;77.23;98456.00;4193931;28;20036;-72
2022/04/04 05:42:29;;;;;;;14.55;9.80;;;;;;;0.05;77.03;98458.41;4200430;28;20480;-72
2022/04/04 05:44:32;;;;;;;14.27;10.23;;;;;;;0.07;76.95;98456.16;4191181;28;20059;-71
2022/04/04 05:46:33;;;;;;;17.52;10.68;;;;;;;0.09;76.91;98455.88;4191520;28;20119;-71
2022/04/04 05:48:34;;;;;;;17.33;9.88;;;;;;;0.19;76.35;98452.91;4194001;28;20085;-71
2022/04/04 05:50:34;;;;;;;17.90;11.40;;;;;;;0.23;76.34;98453.88;4195610;28;20049;-71
2022/04/04 05:52:35;;;;;;;17.77;11.10;;;;;;;0.27;76.50;98446.69;4191830;28;20036;-71
2022/04/04 05:54:53;;;;;;;18.48;11.23;;;;;;;0.32;76.68;98446.56;4193806;28;20051;-71
2022/04/04 05:56:53;;;;;;;18.08;10.95;;;;;;;0.36;76.28;98444.03;4192147;28;20374;-71
2022/04/04 05:58:54;;;;;;;17.40;11.00;;;;;;;0.37;76.37;98438.28;4194209;28;20070;-71
2022/04/04 06:00:54;;;;;;;17.30;11.57;;;;;;;0.43;76.24;98419.91;4192245;28;20603;-71
2022/04/04 06:02:55;;;;;;;19.92;11.35;;;;;;;0.47;76.13;98438.00;4196224;28;20040;-72
2022/04/04 06:04:56;;;;;;;17.83;11.27;;;;;;;0.57;75.71;98442.38;4193336;28;20223;-72
2022/04/04 06:06:56;;;;;;;17.67;11.07;;;;;;;0.62;75.60;98439.50;4193039;28;20071;-72
2022/04/04 06:08:57;;;;;;;17.55;11.02;;;;;;;0.64;75.30;98434.56;4194291;28;20048;-72
2022/04/04 06:10:57;;;;;;;21.63;10.75;;;;;;;0.70;74.98;98433.31;4197678;28;20047;-72
2022/04/04 06:12:58;;;;;;;18.23;11.20;;;;;;;0.76;75.75;98436.69;4193602;28;20749;-72
2022/04/04 06:14:58;;;;;;;15.13;9.90;;;;;;;0.83;74.94;98435.13;4193036;28;20040;-72
2022/04/04 06:16:58;;;;;;;15.63;10.40;;;;;;;0.86;75.56;98422.00;4193447;28;20052;-72
2022/04/04 06:18:59;;;;;;;17.08;10.68;;;;;;;0.83;75.30;98417.97;4195236;28;20052;-72
2022/04/04 06:20:59;;;;;;;15.52;10.38;;;;;;;0.89;75.11;98427.59;4195396;28;20048;-72
2022/04/04 06:23:00;;;;;;;16.70;10.73;;;;;;;0.91;74.27;98422.66;4197249;28;20036;-72
2022/04/04 06:25:00;;;;;;;16.27;10.43;;;;;;;0.93;74.24;98428.59;4193886;28;20131;-72
2022/04/04 06:27:02;;;;;;;17.73;10.55;;;;;;;0.96;74.80;98427.13;4192297;28;20040;-71
2022/04/04 06:29:02;;;;;;;17.63;10.93;;;;;;;0.98;74.57;98422.16;4194661;28;20492;-71
2022/04/04 06:31:04;;;;;;;18.17;10.05;;;;;;;1.04;74.68;98416.25;4202025;28;20046;-71
2022/04/04 06:33:05;;;;;;;15.20;10.13;;;;;;;1.10;74.72;98417.72;4196978;28;20044;-72
2022/04/04 06:35:07;;;;;;;15.27;10.40;;;;;;;1.16;74.55;98420.28;4192721;28;20044;-71
2022/04/04 06:37:10;;;;;;;17.08;10.60;;;;;;;1.26;73.92;98420.00;4192835;28;20439;-72
2022/04/04 06:39:10;;;;;;;15.60;10.60;;;;;;;1.27;73.92;98413.44;4193920;28;20382;-72
2022/04/04 06:41:11;;;;;;;14.93;10.05;;;;;;;1.37;73.39;98410.38;4193698;28;20131;-72
2022/04/04 06:43:12;;;;;;;15.05;9.90;;;;;;;1.41;73.17;98419.56;4194873;28;20047;-72
2022/04/04 06:45:13;;;;;;;16.08;10.05;;;;;;;1.37;72.85;98415.84;4194199;28;20546;-72
2022/04/04 06:47:13;;;;;;;15.27;9.93;;;;;;;1.41;72.40;98411.38;4192923;28;20072;-72
2022/04/04 06:49:14;;;;;;;14.27;10.13;;;;;;;1.35;73.33;98413.44;4194335;28;20091;-72
2022/04/04 06:51:14;;;;;;;16.23;9.98;;;;;;;1.35;72.74;98413.44;4195979;28;20051;-72
2022/04/04 06:53:15;;;;;;;15.18;10.10;;;;;;;1.42;71.88;98406.72;4194785;28;20040;-72
2022/04/04 06:55:15;;;;;;;17.45;9.90;;;;;;;1.36;72.76;98411.53;4193329;28;20147;-72
2022/04/04 06:57:16;;;;;;;14.18;9.80;;;;;;;1.38;72.14;98407.34;4194126;28;20075;-72
2022/04/04 06:59:16;;;;;;;14.32;9.43;;;;;;;1.39;71.60;98413.59;4194724;28;20355;-72
2022/04/04 07:01:17;;;;;;;15.25;9.68;;;;;;;1.37;71.96;98402.22;4194021;28;20541;-72
2022/04/04 07:03:17;;;;;;;19.63;11.63;;;;;;;1.43;71.06;98403.66;4193612;28;20128;-72
2022/04/04 07:05:17;;;;;;;13.60;9.80;;;;;;;1.55;71.18;98411.19;4199230;28;20083;-72
2022/04/04 07:07:18;;;;;;;16.60;10.00;;;;;;;1.59;70.96;98401.28;4193810;28;20041;-72
2022/04/04 07:09:18;;;;;;;17.38;10.52;;;;;;;1.62;71.08;98406.06;4192379;28;20082;-72
2022/04/04 07:11:19;;;;;;;16.20;10.10;;;;;;;1.60;70.09;98392.78;4195283;28;20127;-72
2022/04/04 07:13:19;;;;;;;16.33;9.32;;;;;;;1.62;70.85;98398.69;4193659;28;20210;-72
2022/04/04 07:15:20;;;;;;;14.50;9.35;;;;;;;1.61;70.73;98399.03;4192054;28;20773;-72
2022/04/04 07:17:20;;;;;;;15.35;9.25;;;;;;;1.63;70.58;98394.03;4194037;28;20048;-72
2022/04/04 07:19:22;;;;;;;14.45;9.93;;;;;;;1.68;70.36;98393.88;4193624;28;20037;-72
2022/04/04 07:21:23;;;;;;;16.50;10.23;;;;;;;1.71;70.20;98392.44;4194329;28;20048;-72
2022/04/04 07:23:23;;;;;;;16.52;10.23;;;;;;;1.74;70.76;98391.78;4193472;28;20051;-72
2022/04/04 07:25:23;;;;;;;16.67;10.90;;;;;;;1.71;70.31;98389.72;4197064;28;20047;-72
2022/04/04 07:27:23;;;;;;;17.15;10.50;;;;;;;1.75;69.64;98387.97;4197574;28;20423;-72
2022/04/04 07:29:24;;;;;;;16.55;10.52;;;;;;;1.82;70.04;98393.69;4199777;28;20136;-72
2022/04/04 07:31:25;;;;;;;14.35;9.90;;;;;;;1.90;69.31;98381.97;4194253;28;20042;-72
2022/04/04 07:33:26;;;;;;;15.32;10.35;;;;;;;2.00;68.66;98380.88;4197448;28;20047;-72
2022/04/04 07:35:26;;;;;;;16.58;10.10;;;;;;;2.06;67.90;98369.44;4197173;28;20436;-72
2022/04/04 07:37:26;;;;;;;15.30;10.00;;;;;;;2.05;68.15;98362.38;4195390;28;20044;-72
2022/04/04 07:39:26;;;;;;;14.95;9.88;;;;;;;2.09;67.83;98359.81;4203274;28;20039;-72
2022/04/04 07:41:27;;;;;;;14.15;9.90;;;;;;;2.18;68.44;98364.13;4196674;28;20269;-72
2022/04/04 07:43:27;;;;;;;14.15;9.65;;;;;;;2.27;68.46;98357.81;4196287;28;20315;-72
2022/04/04 07:45:29;;;;;;;13.73;9.48;;;;;;;2.29;68.05;98352.84;4197936;28;20135;-72
2022/04/04 07:47:31;;;;;;;14.13;9.52;;;;;;;2.40;67.65;98354.06;4198146;28;20139;-72
2022/04/04 07:49:31;;;;;;;13.73;9.68;;;;;;;2.47;66.78;98346.16;4197878;28;20086;-72
2022/04/04 07:51:32;;;;;;;16.17;10.25;;;;;;;2.48;67.36;98353.25;4195825;28;20131;-72
2022/04/04 07:53:32;;;;;;;15.65;9.10;;;;;;;2.57;67.18;98336.84;4196811;28;20516;-72
2022/04/04 07:55:32;;;;;;;14.32;10.45;;;;;;;2.65;66.74;98344.16;4197969;28;20601;-72
2022/04/04 07:57:33;;;;;;;14.05;9.73;;;;;;;2.67;66.05;98344.66;4193429;28;20475;-72
2022/04/04 07:59:33;;;;;;;14.00;9.40;;;;;;;2.66;66.04;98329.41;4197508;28;20055;-71
2022/04/04 08:01:34;;;;;;;13.45;9.55;;;;;;;2.70;65.36;98327.59;4195837;28;20048;-71
2022/04/04 08:03:34;;;;;;;14.07;9.20;;;;;;;2.69;64.81;98324.06;4196987;28;20122;-71
2022/04/04 08:05:35;;;;;;;13.45;9.27;;;;;;;2.76;65.18;98326.28;4197993;28;20040;-71
2022/04/04 08:07:36;;;;;;;12.55;9.18;;;;;;;2.81;65.38;98310.50;4195428;28;20096;-71
2022/04/04 08:09:36;;;;;;;13.65;9.38;;;;;;;2.80;64.79;98324.47;4196059;28;20391;-71
2022/04/04 08:11:36;;;;;;;11.90;8.07;;;;;;;2.91;64.24;98309.31;4196037;28;20668;-71
2022/04/04 08:13:42;;;;;;;12.68;9.10;;;;;;;2.97;64.70;98307.97;4202982;28;20114;-71
2022/04/04 08:15:44;;;;;;;14.85;8.05;;;;;;;3.05;64.85;98311.78;4198276;28;20032;-71
2022/04/04 08:17:44;;;;;;;11.38;8.38;;;;;;;3.02;63.89;98310.50;4192660;28;20041;-71
2022/04/04 08:19:44;;;;;;;11.95;8.77;;;;;;;3.03;63.90;98300.38;4197614;28;20040;-71
2022/04/04 08:21:45;;;;;;;12.48;8.20;;;;;;;3.03;63.76;98298.44;4196531;28;20051;-71
2022/04/04 08:23:46;;;;;;;11.73;8.00;;;;;;;3.08;64.02;98287.31;4194819;28;20045;-71
2022/04/04 08:25:46;;;;;;;11.75;8.52;;;;;;;3.17;63.77;98303.66;4195955;28;20067;-71
2022/04/04 08:27:47;;;;;;;13.88;8.93;;;;;;;3.12;63.31;98287.44;4197946;28;20131;-71
2022/04/04 08:29:48;;;;;;;13.63;9.38;;;;;;;3.31;63.63;98286.97;4199507;28;20048;-72
2022/04/04 08:31:48;;;;;;;14.20;9.07;;;;;;;3.30;63.48;98272.50;4193802;28;20293;-71
2022/04/04 08:33:48;;;;;;;10.93;7.85;;;;;;;3.45;63.61;98279.28;4195146;28;20507;-72
2022/04/04 08:35:50;;;;;;;11.77;8.80;;;;;;;3.57;63.02;98267.59;4196834;28;20415;-72
2022/04/04 08:37:50;;;;;;;11.68;8.43;;;;;;;3.63;62.41;98271.72;4194686;28;20036;-71
2022/04/04 08:39:51;;;;;;;13.40;9.07;;;;;;;3.67;61.54;98275.38;4195444;28;20059;-72
2022/04/04 08:41:55;;;;;;;11.95;9.00;;;;;;;3.68;61.67;98263.31;4196946;28;20100;-71
2022/04/04 08:43:58;;;;;;;11.55;8.45;;;;;;;3.67;61.21;98261.72;4196893;28;20071;-71
2022/04/04 08:45:58;;;;;;;12.80;8.23;;;;;;;3.65;61.01;98261.25;4196746;28;20047;-71
2022/04/04 08:47:59;;;;;;;11.63;8.27;;;;;;;3.53;60.24;98247.53;4191767;28;20043;-71
2022/04/04 08:50:01;;;;;;;11.38;7.70;;;;;;;3.47;59.85;98271.53;4202700;28;20502;-71
2022/04/04 08:52:02;;;;;;;11.77;7.88;;;;;;;3.38;60.80;98259.88;4194773;28;20037;-72
2022/04/04 08:54:03;;;;;;;10.52;7.28;;;;;;;3.41;61.32;98255.69;4195593;28;20032;-72
2022/04/04 08:56:05;;;;;;;12.77;8.32;;;;;;;3.39;61.42;98261.47;4196395;28;20502;-72
2022/04/04 08:58:05;;;;;;;12.15;8.05;;;;;;;3.38;61.24;98263.41;4189450;28;20040;-72
2022/04/04 09:00:07;;;;;;;10.55;7.68;;;;;;;3.39;61.70;98253.28;4194062;28;20456;-71
2022/04/04 09:02:07;;;;;;;12.20;8.32;;;;;;;3.54;61.13;98246.38;4199570;28;20159;-72
2022/04/04 09:04:07;;;;;;;12.05;8.65;;;;;;;3.57;61.74;98238.31;4197534;28;20071;-72
2022/04/04 09:06:08;;;;;;;10.45;7.90;;;;;;;3.52;61.55;98244.00;4196739;28;20279;-72
2022/04/04 09:08:09;;;;;;;12.18;8.70;;;;;;;3.61;61.04;98238.44;4195819;28;20271;-72
2022/04/04 09:10:13;;;;;;;10.55;8.02;;;;;;;3.59;60.49;98232.50;4191577;28;20091;-72
2022/04/04 09:12:16;;;;;;;14.50;9.23;;;;;;;3.63;61.07;98230.66;4193598;28;20566;-72
2022/04/04 09:14:20;;;;;;;10.80;8.30;;;;;;;3.66;61.40;98225.34;4195825;28;20032;-72
2022/04/04 09:16:21;;;;;;;13.18;8.63;;;;;;;3.64;61.69;98219.41;4194871;28;20056;-72
2022/04/04 09:18:41;;;;;;;11.98;8.52;;;;;;;3.71;61.60;98220.78;4191468;28;20460;-71
2022/04/04 09:20:49;;;;;;;12.35;8.95;;;;;;;3.78;60.57;98216.34;4191600;28;20036;-71
2022/04/04 09:22:53;;;;;;;12.07;7.63;;;;;;;3.80;60.91;98202.31;4194639;28;20456;-71
2022/04/04 09:24:58;;;;;;;11.77;7.80;;;;;;;3.82;59.67;98209.06;4194962;28;20048;-72
2022/04/04 09:27:09;;;;;;;10.07;7.78;;;;;;;3.83;59.80;98191.50;4191656;28;20415;-72
2022/04/04 09:29:09;;;;;;;13.65;7.78;;;;;;;3.88;60.70;98188.53;4194140;28;20036;-72